Airfield :
LOGIN :

Register | Disclaimer

   EN    FR    IT 

 










Legend :    VFR   Marginal VFR   IFR   Intensive IFR   Very Intensive IFR
Visi :
Ceiling :
>= 8 km
>= 3000ft
5 to 8 km
1000 to 3000 ft
1500m to 5 km
500 to 1000 ft
800 to 1500m
200 to 500 ft
< 800m
< 200 ft
Symbols :   Thunderstorms  Fog  Heavy snow  Heavy precipitations  Wind > 20 kt
SIGMETs :     Misc.  Thunderstorms  Icing  Turbulence  Mountain Waves  Volcanic Ashes







- Airport Elevation : 978 ft
- IATA code : LNZ


LOWL - Linz

CURRENT METAR :
  • 152350Z AUTO VRB01KT 9999 NSC 14/14 Q1021

EXPIRED METARs :
  • 152320Z AUTO VRB01KT 9999 NSC 14/13 Q1022
  • 152250Z AUTO 25002KT 9999 NSC 14/13 Q1022
  • 152220Z AUTO VRB01KT 9999 NSC 14/13 Q1022
  • 152150Z AUTO 25003KT 240V310 9999 NSC 15/14 Q1022
  • 152120Z AUTO 25002KT 9999 NSC 16/15 Q1022

TAF TAF LOWL
Valid from the 16 at 00:00 until the 17 at 00:00 UTC


152315Z 1600/1624 26003KT CAVOK TX24/1614Z TN14/1605Z
PROB30
TEMPO 1601/1607 0800 BCFG SCT003 BKN040
TEMPO 1609/1615 29010KT SCT040 SCT150
No reported NOTAMs for that airfield.



MET'MAP, your aeronautical weather chart ! - Copyright ORBIFLY December 2007 - Disclaimer

ORBIFLY MET'MAP TEAM :

Programming & Development : Alexandra Zaïnal
Concept & Development : Baudouin d'Aumeries
Co-Development & Prog : Marc-Olivier Méhu
Technical & hardware support : Manuel Goepfert

Contact : metmap@orbifly.com




SOURCES & CREDITS :

   NOAA